Time;durP1;ratioP1;P1;durP2;ratioP2;P2;SDS_P1;SDS_P2;PMS_P1;PMS_P2;Temp;Humidity;BMP_temperature;BMP_pressure;BME280_temperature;BME280_humidity;BME280_pressure;Samples;Min_cycle;Max_cycle;Signal;HPM_P1;HPM_P2
2024/01/16 00:00:01;;;;;;;31.42;13.32;;;;;;;-146.58;100.00;69501.63;5031353;28;20684;-64
2024/01/16 00:02:27;;;;;;;19.02;9.10;;;;;;;-146.58;100.00;69501.63;5032910;28;20057;-64
2024/01/16 00:04:52;;;;;;;31.65;9.57;;;;;;;-146.58;100.00;69501.63;5031477;28;20543;-64
2024/01/16 00:07:17;;;;;;;15.82;9.18;;;;;;;-146.58;100.00;69501.63;5032646;28;20029;-64
2024/01/16 00:09:43;;;;;;;24.35;9.10;;;;;;;-146.58;100.00;69501.63;5030962;28;20041;-64
2024/01/16 00:12:08;;;;;;;15.05;8.02;;;;;;;-146.58;100.00;69501.63;5032708;28;20032;-64
2024/01/16 00:14:37;;;;;;;16.92;8.77;;;;;;;-146.58;100.00;69501.63;5030708;28;20396;-64
2024/01/16 00:17:03;;;;;;;19.65;11.77;;;;;;;-146.58;100.00;69501.63;5032702;28;20021;-64
2024/01/16 00:19:28;;;;;;;16.73;8.63;;;;;;;-146.58;100.00;69501.63;5031382;28;20044;-65
2024/01/16 00:21:53;;;;;;;19.65;8.82;;;;;;;-146.58;100.00;69501.63;5032188;28;20029;-65
2024/01/16 00:24:19;;;;;;;23.52;8.27;;;;;;;-146.58;100.00;69501.63;5031243;28;20528;-65
2024/01/16 00:26:44;;;;;;;23.13;8.35;;;;;;;-146.58;100.00;69501.63;5032251;28;20029;-65
2024/01/16 00:29:12;;;;;;;17.08;8.45;;;;;;;-146.58;100.00;69501.63;5030527;28;20033;-64
2024/01/16 00:31:37;;;;;;;16.60;10.63;;;;;;;-146.58;100.00;69501.63;5032225;28;20033;-64
2024/01/16 00:34:03;;;;;;;20.00;9.70;;;;;;;-146.58;100.00;69501.63;5031198;28;20041;-64
2024/01/16 00:36:28;;;;;;;13.38;7.88;;;;;;;-146.58;100.00;69501.63;5031785;28;20033;-64
2024/01/16 00:38:54;;;;;;;14.75;6.63;;;;;;;-146.58;100.00;69501.63;5030958;28;20038;-64
2024/01/16 00:41:19;;;;;;;16.65;8.63;;;;;;;-146.58;100.00;69501.63;5032216;28;20022;-65
2024/01/16 00:43:45;;;;;;;18.88;8.20;;;;;;;-146.58;100.00;69501.63;5029993;28;20500;-65
2024/01/16 00:46:10;;;;;;;26.52;10.13;;;;;;;-146.58;100.00;69501.63;5032310;28;20045;-64
2024/01/16 00:48:36;;;;;;;24.77;7.88;;;;;;;-146.58;100.00;69501.63;5030450;28;20021;-65
2024/01/16 00:51:01;;;;;;;22.00;7.50;;;;;;;-146.58;100.00;69501.63;5031886;28;20032;-65
2024/01/16 00:53:27;;;;;;;16.45;8.45;;;;;;;-146.58;100.00;69501.63;5030202;28;20033;-65
2024/01/16 00:55:54;;;;;;;23.77;9.55;;;;;;;-146.58;100.00;69501.63;5031736;28;20024;-65
2024/01/16 00:58:21;;;;;;;14.82;8.18;;;;;;;-146.58;100.00;69501.63;5031649;28;20022;-65
2024/01/16 01:00:46;;;;;;;14.70;8.02;;;;;;;-146.58;100.00;69501.63;5030438;28;20598;-65
2024/01/16 01:03:12;;;;;;;19.67;9.85;;;;;;;-146.58;100.00;69501.63;5031793;28;20029;-65
2024/01/16 01:05:37;;;;;;;30.95;11.57;;;;;;;-146.58;100.00;69501.63;5029711;28;20064;-65
2024/01/16 01:08:03;;;;;;;17.02;9.48;;;;;;;-146.58;100.00;69501.63;5031977;28;20026;-65
2024/01/16 01:10:28;;;;;;;16.38;9.95;;;;;;;-146.58;100.00;69501.63;5030163;28;20080;-66
2024/01/16 01:12:54;;;;;;;13.00;8.07;;;;;;;-146.58;100.00;69501.63;5031016;28;20083;-66
2024/01/16 01:15:22;;;;;;;20.20;10.73;;;;;;;-146.58;100.00;69501.63;5030139;28;20033;-66
2024/01/16 01:17:49;;;;;;;12.63;10.02;;;;;;;-146.58;100.00;69501.63;5031419;28;20021;-66
2024/01/16 01:20:15;;;;;;;24.00;10.75;;;;;;;-146.58;100.00;69501.63;5029830;28;20041;-66
2024/01/16 01:22:40;;;;;;;21.50;11.40;;;;;;;-146.58;100.00;69501.63;5031297;28;20424;-66
2024/01/16 01:25:06;;;;;;;16.48;10.20;;;;;;;-146.58;100.00;69501.63;5029949;28;20041;-66
2024/01/16 01:27:32;;;;;;;24.30;11.55;;;;;;;-146.58;100.00;69501.63;5030849;28;20125;-65
2024/01/16 01:29:58;;;;;;;13.23;8.98;;;;;;;-146.58;100.00;69501.63;5029561;28;20497;-65
2024/01/16 01:32:23;;;;;;;18.50;11.00;;;;;;;-146.58;100.00;69501.63;5031244;28;20116;-65
2024/01/16 01:34:48;;;;;;;21.83;12.52;;;;;;;-146.58;100.00;69501.63;5029476;28;20041;-64
2024/01/16 01:37:14;;;;;;;23.52;11.65;;;;;;;-146.58;100.00;69501.63;5031010;28;20109;-64
2024/01/16 01:39:40;;;;;;;22.92;9.80;;;;;;;-146.58;100.00;69501.63;5029486;28;20041;-64
2024/01/16 01:42:05;;;;;;;18.77;11.40;;;;;;;-146.58;100.00;69501.63;5030957;28;20481;-65
2024/01/16 01:44:32;;;;;;;23.00;11.40;;;;;;;-146.58;100.00;69501.63;5029041;28;20058;-64
2024/01/16 01:46:58;;;;;;;15.45;10.25;;;;;;;-146.58;100.00;69501.63;5031065;28;20018;-65
2024/01/16 01:49:26;;;;;;;21.20;10.30;;;;;;;-146.58;100.00;69501.63;5029679;28;20129;-65
2024/01/16 01:51:52;;;;;;;28.23;12.25;;;;;;;-146.58;100.00;69501.63;5030668;28;20079;-65
2024/01/16 01:54:20;;;;;;;16.98;10.82;;;;;;;-146.58;100.00;69501.63;5029417;28;20041;-65
2024/01/16 01:56:47;;;;;;;14.68;8.90;;;;;;;-146.58;100.00;69501.63;5030809;28;20079;-65
2024/01/16 01:59:14;;;;;;;22.02;9.55;;;;;;;-146.58;100.00;69501.63;5029332;28;20471;-65
2024/01/16 02:01:41;;;;;;;14.48;10.18;;;;;;;-146.58;100.00;69501.63;5030484;28;20051;-65
2024/01/16 02:04:06;;;;;;;31.50;10.30;;;;;;;-146.58;100.00;69501.63;5028863;28;20042;-65
2024/01/16 02:06:32;;;;;;;14.93;9.15;;;;;;;-146.58;100.00;69501.63;5030315;28;20044;-65
2024/01/16 02:08:58;;;;;;;13.50;9.73;;;;;;;-146.58;100.00;69501.63;5027794;28;20048;-65
2024/01/16 02:11:24;;;;;;;17.48;9.35;;;;;;;-146.58;100.00;69501.63;5031020;28;20083;-66
2024/01/16 02:13:50;;;;;;;20.17;10.30;;;;;;;-146.58;100.00;69501.63;5028720;28;20072;-65
2024/01/16 02:16:22;;;;;;;21.83;10.95;;;;;;;-146.58;100.00;69501.63;5030784;28;20219;-65
2024/01/16 02:18:49;;;;;;;19.27;10.07;;;;;;;-146.58;100.00;69501.63;5028958;28;20117;-65
2024/01/16 02:21:25;;;;;;;23.33;10.27;;;;;;;-146.58;100.00;69501.63;5030458;28;20027;-65
2024/01/16 02:23:51;;;;;;;15.45;8.82;;;;;;;-146.58;100.00;69501.63;5029196;28;20048;-65
2024/01/16 02:26:18;;;;;;;26.75;8.82;;;;;;;-146.58;100.00;69501.63;5030824;28;20392;-65
2024/01/16 02:28:43;;;;;;;11.02;8.48;;;;;;;-146.58;100.00;69501.63;5028738;28;20436;-65
2024/01/16 02:31:09;;;;;;;17.73;8.70;;;;;;;-146.58;100.00;69501.63;5030597;28;20033;-65
2024/01/16 02:33:34;;;;;;;24.27;8.48;;;;;;;-146.58;100.00;69501.63;5028981;28;20028;-65
2024/01/16 02:35:59;;;;;;;15.02;7.57;;;;;;;-146.58;100.00;69501.63;5030135;28;20030;-65
2024/01/16 02:38:25;;;;;;;15.40;8.15;;;;;;;-146.58;100.00;69501.63;5028802;28;20038;-67
2024/01/16 02:40:51;;;;;;;13.23;7.20;;;;;;;-146.58;100.00;69501.63;5030444;28;20413;-67
2024/01/16 02:43:16;;;;;;;16.63;7.40;;;;;;;-146.58;100.00;69501.63;5030109;28;20072;-67
2024/01/16 02:45:41;;;;;;;24.08;9.07;;;;;;;-146.58;100.00;69501.63;5028829;28;20034;-67
2024/01/16 02:48:07;;;;;;;19.15;9.05;;;;;;;-146.58;100.00;69501.63;5030657;28;20044;-66
2024/01/16 02:50:33;;;;;;;12.98;7.43;;;;;;;-146.58;100.00;69501.63;5028249;28;20501;-67
2024/01/16 02:52:58;;;;;;;14.60;8.38;;;;;;;-146.58;100.00;69501.63;5030414;28;20120;-67
2024/01/16 02:55:24;;;;;;;17.33;8.40;;;;;;;-146.58;100.00;69501.63;5028846;28;20527;-67
2024/01/16 02:57:50;;;;;;;32.13;8.55;;;;;;;-146.58;100.00;69501.63;5029702;28;20753;-67
2024/01/16 03:00:15;;;;;;;24.55;10.07;;;;;;;-146.58;100.00;69501.63;5029021;28;20042;-66
2024/01/16 03:02:41;;;;;;;15.15;7.95;;;;;;;-146.58;100.00;69501.63;5030257;28;20435;-67
2024/01/16 03:05:06;;;;;;;15.25;8.13;;;;;;;-146.58;100.00;69501.63;5028479;28;20092;-66
2024/01/16 03:07:32;;;;;;;16.25;8.05;;;;;;;-146.58;100.00;69501.63;5030081;28;20026;-67
2024/01/16 03:09:58;;;;;;;12.00;8.57;;;;;;;-146.58;100.00;69501.63;5028715;28;20063;-67
2024/01/16 03:12:23;;;;;;;21.65;9.07;;;;;;;-146.58;100.00;69501.63;5010249;28;20022;-67
2024/01/16 03:14:48;;;;;;;23.95;8.45;;;;;;;-146.58;100.00;69501.63;5009084;28;20528;-67
2024/01/16 03:17:14;;;;;;;22.10;9.85;;;;;;;-146.58;100.00;69501.63;5013745;28;20018;-66
2024/01/16 03:19:39;;;;;;;25.67;10.57;;;;;;;-146.58;100.00;69501.63;5011863;28;20501;-66
2024/01/16 03:22:05;;;;;;;14.60;9.25;;;;;;;-146.58;100.00;69501.63;5014184;28;20112;-66
2024/01/16 03:24:31;;;;;;;18.80;9.65;;;;;;;-146.58;100.00;69501.63;5012508;28;20125;-66
2024/01/16 03:26:56;;;;;;;20.85;9.82;;;;;;;-146.58;100.00;69501.63;5025208;28;20029;-66
2024/01/16 03:29:21;;;;;;;21.38;8.85;;;;;;;-146.58;100.00;69501.63;5032205;28;20033;-66
2024/01/16 03:31:47;;;;;;;16.23;8.63;;;;;;;-146.58;100.00;69501.63;5033387;28;20040;-66
2024/01/16 03:34:13;;;;;;;32.33;11.38;;;;;;;-146.58;100.00;69501.63;5031678;28;20036;-66
2024/01/16 03:36:38;;;;;;;17.08;9.15;;;;;;;-146.58;100.00;69501.63;5033246;28;20021;-66
2024/01/16 03:39:04;;;;;;;16.58;10.18;;;;;;;-146.58;100.00;69501.63;5032191;28;20034;-66
2024/01/16 03:41:29;;;;;;;16.38;10.32;;;;;;;-146.58;100.00;69501.63;5032809;28;20477;-66
2024/01/16 03:43:57;;;;;;;23.27;10.50;;;;;;;-146.58;100.00;69501.63;5031897;28;20040;-66
2024/01/16 03:46:23;;;;;;;12.60;8.52;;;;;;;-146.58;100.00;69501.63;5033410;28;20104;-66
2024/01/16 03:48:48;;;;;;;27.95;13.07;;;;;;;-146.58;100.00;69501.63;5031051;28;20188;-66
2024/01/16 03:51:15;;;;;;;15.18;10.27;;;;;;;-146.58;100.00;69501.63;5033221;28;20092;-66
2024/01/16 03:53:41;;;;;;;23.08;13.50;;;;;;;-146.58;100.00;69501.63;5031564;28;20057;-66
2024/01/16 03:56:07;;;;;;;26.80;11.63;;;;;;;-146.58;100.00;69501.63;5032735;28;20437;-66
2024/01/16 03:58:33;;;;;;;15.38;10.02;;;;;;;-146.58;100.00;69501.63;5031587;28;20052;-66
2024/01/16 04:00:58;;;;;;;21.48;11.63;;;;;;;-146.58;100.00;69501.63;5032896;28;20045;-66
2024/01/16 04:03:24;;;;;;;17.35;12.32;;;;;;;-146.58;100.00;69501.63;5031182;28;20025;-66
2024/01/16 04:05:49;;;;;;;21.45;13.38;;;;;;;-146.58;100.00;69501.63;5032859;28;20051;-66
2024/01/16 04:08:15;;;;;;;16.27;12.95;;;;;;;-146.58;100.00;69501.63;5033136;28;20021;-66
2024/01/16 04:10:41;;;;;;;25.02;13.77;;;;;;;-146.58;100.00;69501.63;5011795;28;20077;-66
2024/01/16 04:13:07;;;;;;;21.08;12.65;;;;;;;-146.58;100.00;69501.63;5013104;28;20022;-66
2024/01/16 04:15:33;;;;;;;19.55;12.07;;;;;;;-146.58;100.00;69501.63;5011365;28;20124;-66
2024/01/16 04:17:59;;;;;;;21.77;15.30;;;;;;;-146.58;100.00;69501.63;5012579;28;20029;-66
2024/01/16 04:20:25;;;;;;;21.92;16.05;;;;;;;-146.58;100.00;69501.63;5011620;28;20041;-66
2024/01/16 04:22:50;;;;;;;22.83;14.88;;;;;;;-146.58;100.00;69501.63;5012887;28;20030;-66
2024/01/16 04:25:16;;;;;;;20.48;13.98;;;;;;;-146.58;100.00;69501.63;5026065;28;20037;-66
2024/01/16 04:27:41;;;;;;;25.15;17.27;;;;;;;-146.58;100.00;69501.63;5031536;28;20022;-67
2024/01/16 04:30:07;;;;;;;29.50;18.10;;;;;;;-146.58;100.00;69501.63;5031015;28;20045;-67
2024/01/16 04:32:33;;;;;;;23.80;15.68;;;;;;;-146.58;100.00;69501.63;5031912;28;20025;-67
2024/01/16 04:34:58;;;;;;;27.83;14.25;;;;;;;-146.58;100.00;69501.63;5031063;28;20087;-66
2024/01/16 04:37:23;;;;;;;27.35;15.98;;;;;;;-146.58;100.00;69501.63;5032394;28;20548;-66
2024/01/16 04:39:49;;;;;;;22.27;16.38;;;;;;;-146.58;100.00;69501.63;5030519;28;20049;-66
2024/01/16 04:42:17;;;;;;;28.08;16.55;;;;;;;-146.58;100.00;69501.63;5032018;28;20488;-67
2024/01/16 04:44:43;;;;;;;17.60;14.00;;;;;;;-146.58;100.00;69501.63;5030782;28;20072;-66
2024/01/16 04:47:08;;;;;;;24.83;15.50;;;;;;;-146.58;100.00;69501.63;5032055;28;20029;-66
2024/01/16 04:49:33;;;;;;;24.20;16.15;;;;;;;-146.58;100.00;69501.63;5030221;28;20038;-66
2024/01/16 04:51:59;;;;;;;24.88;15.18;;;;;;;-146.58;100.00;69501.63;5032110;28;20028;-66
2024/01/16 04:54:24;;;;;;;30.95;16.73;;;;;;;-146.58;100.00;69501.63;5030443;28;20497;-66
2024/01/16 04:56:50;;;;;;;28.92;15.23;;;;;;;-146.58;100.00;69501.63;5031560;28;20531;-66
2024/01/16 04:59:15;;;;;;;32.38;16.73;;;;;;;-146.58;100.00;69501.63;5030622;28;20060;-66
2024/01/16 05:01:40;;;;;;;25.10;14.95;;;;;;;-146.58;100.00;69501.63;5031517;28;20021;-66
2024/01/16 05:04:07;;;;;;;21.40;14.88;;;;;;;-146.58;100.00;69501.63;5029970;28;20068;-66
2024/01/16 05:06:33;;;;;;;22.17;14.23;;;;;;;-146.58;100.00;69501.63;5031630;28;20059;-66
2024/01/16 05:08:58;;;;;;;25.23;16.27;;;;;;;-146.58;100.00;69501.63;5030364;28;20068;-66
2024/01/16 05:11:24;;;;;;;23.42;14.73;;;;;;;-146.58;100.00;69501.63;5031136;28;20026;-66
2024/01/16 05:13:49;;;;;;;19.42;15.25;;;;;;;-146.58;100.00;69501.63;5030038;28;20041;-67
2024/01/16 05:16:14;;;;;;;21.98;13.07;;;;;;;-146.58;100.00;69501.63;5031458;28;20017;-66
2024/01/16 05:18:43;;;;;;;19.00;13.43;;;;;;;-146.58;100.00;69501.63;5029590;28;20033;-66
2024/01/16 05:21:08;;;;;;;28.40;14.23;;;;;;;-146.58;100.00;69501.63;5031553;28;20021;-66
2024/01/16 05:23:34;;;;;;;19.88;11.98;;;;;;;-146.58;100.00;69501.63;5029997;28;20029;-66
2024/01/16 05:25:59;;;;;;;25.52;13.13;;;;;;;-146.58;100.00;69501.63;5031077;28;20014;-66
2024/01/16 05:28:24;;;;;;;17.33;12.45;;;;;;;-146.58;100.00;69501.63;5030003;28;20029;-66
2024/01/16 05:30:50;;;;;;;20.13;12.05;;;;;;;-146.58;100.00;69501.63;5030992;28;20021;-67
2024/01/16 05:33:15;;;;;;;31.10;12.98;;;;;;;-146.58;100.00;69501.63;5031155;28;20083;-59
2024/01/16 05:35:41;;;;;;;13.68;11.05;;;;;;;-146.58;100.00;69501.63;5029029;28;20874;-63
2024/01/16 05:38:06;;;;;;;16.85;13.48;;;;;;;-146.58;100.00;69501.63;5027443;28;20075;-63
2024/01/16 05:40:32;;;;;;;18.02;13.43;;;;;;;-146.58;100.00;69501.63;5029255;28;20037;-63
2024/01/16 05:42:57;;;;;;;17.25;12.27;;;;;;;-146.58;100.00;69501.63;5031130;28;20484;-63
2024/01/16 05:45:22;;;;;;;15.73;13.07;;;;;;;-146.58;100.00;69501.63;5029858;28;20459;-63
2024/01/16 05:47:48;;;;;;;14.15;11.60;;;;;;;-146.58;100.00;69501.63;5030574;28;20025;-63
2024/01/16 05:50:16;;;;;;;23.13;15.63;;;;;;;-146.58;100.00;69501.63;5028889;28;20526;-59
2024/01/16 05:52:42;;;;;;;19.95;12.32;;;;;;;-146.58;100.00;69501.63;5030761;28;20505;-59
2024/01/16 05:55:07;;;;;;;27.02;13.18;;;;;;;-146.58;100.00;69501.63;5029053;28;20040;-60
2024/01/16 05:57:33;;;;;;;24.02;12.30;;;;;;;-146.58;100.00;69501.63;5030853;28;20017;-59
2024/01/16 05:59:59;;;;;;;18.00;12.57;;;;;;;-146.58;100.00;69501.63;5029445;28;20044;-60
2024/01/16 06:02:24;;;;;;;25.65;13.02;;;;;;;-146.58;100.00;69501.63;5025824;28;20484;-59
2024/01/16 06:04:50;;;;;;;16.95;10.73;;;;;;;-146.58;100.00;69501.63;5027315;28;20045;-59
2024/01/16 06:07:15;;;;;;;14.35;10.50;;;;;;;-146.58;100.00;69501.63;5030342;28;20026;-60
2024/01/16 06:09:41;;;;;;;16.55;10.80;;;;;;;-146.58;100.00;69501.63;5027763;28;20455;-61
2024/01/16 06:12:07;;;;;;;10.60;9.13;;;;;;;-146.58;100.00;69501.63;5029596;28;20024;-60
2024/01/16 06:14:33;;;;;;;13.80;9.93;;;;;;;-146.58;100.00;69501.63;5027949;28;20413;-60
2024/01/16 06:16:59;;;;;;;12.27;9.60;;;;;;;-146.58;100.00;69501.63;5028993;28;20067;-61
2024/01/16 06:19:25;;;;;;;13.13;8.60;;;;;;;-146.58;100.00;69501.63;5028017;28;20504;-60
2024/01/16 06:21:50;;;;;;;9.68;8.52;;;;;;;-146.58;100.00;69501.63;5029475;28;20028;-60
2024/01/16 06:24:15;;;;;;;14.40;7.60;;;;;;;-146.58;100.00;69501.63;5027707;28;20041;-60
2024/01/16 06:26:42;;;;;;;11.80;7.20;;;;;;;-146.58;100.00;69501.63;5029119;28;20083;-60
2024/01/16 06:29:07;;;;;;;10.10;7.10;;;;;;;-146.58;100.00;69501.63;5027915;28;20037;-60
2024/01/16 06:31:33;;;;;;;26.20;10.27;;;;;;;-146.58;100.00;69501.63;5029764;28;20079;-60
2024/01/16 06:33:58;;;;;;;10.68;7.43;;;;;;;-146.58;100.00;69501.63;5029212;28;20030;-60
2024/01/16 06:36:24;;;;;;;16.55;7.28;;;;;;;-146.58;100.00;69501.63;5037080;28;20021;-61
2024/01/16 06:38:49;;;;;;;11.80;7.80;;;;;;;-146.58;100.00;69501.63;5031739;28;20041;-61
2024/01/16 06:41:14;;;;;;;13.98;9.02;;;;;;;-146.58;100.00;69501.63;5026562;28;20025;-61
2024/01/16 06:43:40;;;;;;;14.70;9.90;;;;;;;-146.58;100.00;69501.63;5026760;28;20463;-61
2024/01/16 06:46:05;;;;;;;9.90;7.43;;;;;;;-146.58;100.00;69501.63;5029775;28;20079;-60
2024/01/16 06:48:31;;;;;;;12.85;8.68;;;;;;;-146.58;100.00;69501.63;5028403;28;20037;-61
2024/01/16 06:50:56;;;;;;;18.08;10.30;;;;;;;-146.58;100.00;69501.63;5031988;28;20029;-61
2024/01/16 06:53:22;;;;;;;12.45;10.23;;;;;;;-146.58;100.00;69501.63;5033813;28;20057;-60
2024/01/16 06:55:48;;;;;;;22.52;10.77;;;;;;;-146.58;100.00;69501.63;5031841;28;20087;-61
2024/01/16 06:58:13;;;;;;;21.23;12.05;;;;;;;-146.58;100.00;69501.63;5033867;28;20100;-61
2024/01/16 07:00:41;;;;;;;13.43;11.18;;;;;;;-146.58;100.00;69501.63;5031527;28;20041;-60
2024/01/16 07:03:07;;;;;;;17.05;13.85;;;;;;;-146.58;100.00;69501.63;5034027;28;20515;-61
2024/01/16 07:05:32;;;;;;;19.23;11.65;;;;;;;-146.58;100.00;69501.63;5030435;28;20046;-61
2024/01/16 07:07:58;;;;;;;15.77;14.13;;;;;;;-146.58;100.00;69501.63;5032444;28;20017;-61
2024/01/16 07:10:24;;;;;;;15.15;12.18;;;;;;;-146.58;100.00;69501.63;5031157;28;20531;-61
2024/01/16 07:12:51;;;;;;;23.90;15.43;;;;;;;-146.58;100.00;69501.63;5032503;28;20408;-61
2024/01/16 07:15:17;;;;;;;64.88;16.05;;;;;;;-146.58;100.00;69501.63;5031582;28;20386;-61
2024/01/16 07:17:42;;;;;;;16.60;12.68;;;;;;;-146.58;100.00;69501.63;5032278;28;20033;-61
2024/01/16 07:20:08;;;;;;;19.15;13.43;;;;;;;-146.58;100.00;69501.63;5031742;28;20045;-61
2024/01/16 07:22:36;;;;;;;20.92;12.70;;;;;;;-146.58;100.00;69501.63;5033246;28;20041;-61
2024/01/16 07:25:02;;;;;;;17.27;11.10;;;;;;;-146.58;100.00;69501.63;5032028;28;20045;-61
2024/01/16 07:27:27;;;;;;;19.52;10.95;;;;;;;-146.58;100.00;69501.63;5033286;28;20388;-61
2024/01/16 07:29:53;;;;;;;19.42;12.63;;;;;;;-146.58;100.00;69501.63;5031347;28;20103;-61
2024/01/16 07:32:18;;;;;;;16.70;12.40;;;;;;;-146.58;100.00;69501.63;5032883;28;20048;-60
2024/01/16 07:34:44;;;;;;;20.25;11.40;;;;;;;-146.58;100.00;69501.63;5031751;28;20099;-61
2024/01/16 07:37:09;;;;;;;21.63;13.32;;;;;;;-146.58;100.00;69501.63;5033193;28;20033;-60
2024/01/16 07:39:35;;;;;;;18.27;14.35;;;;;;;-146.58;100.00;69501.63;5031540;28;20406;-61
2024/01/16 07:42:00;;;;;;;23.80;12.00;;;;;;;-146.58;100.00;69501.63;5033285;28;20099;-61
2024/01/16 07:44:26;;;;;;;16.30;12.27;;;;;;;-146.58;100.00;69501.63;5032148;28;20061;-61
2024/01/16 07:46:51;;;;;;;41.95;11.73;;;;;;;-146.58;100.00;69501.63;5032686;28;20029;-61
2024/01/16 07:49:16;;;;;;;19.00;11.57;;;;;;;-146.58;100.00;69501.63;5031510;28;20439;-61
2024/01/16 07:51:42;;;;;;;18.55;12.65;;;;;;;-146.58;100.00;69501.63;5032409;28;20044;-62
2024/01/16 07:54:09;;;;;;;20.98;12.27;;;;;;;-146.58;100.00;69501.63;5031156;28;20041;-61
2024/01/16 07:56:36;;;;;;;23.67;10.55;;;;;;;-146.58;100.00;69501.63;5032616;28;20056;-61
2024/01/16 07:59:02;;;;;;;16.50;11.07;;;;;;;-146.58;100.00;69501.63;5031474;28;20065;-61
2024/01/16 08:01:28;;;;;;;15.02;10.75;;;;;;;-146.58;100.00;69501.63;5032237;28;20040;-61
2024/01/16 08:03:56;;;;;;;18.60;11.45;;;;;;;-146.58;100.00;69501.63;5030777;28;20034;-61
2024/01/16 08:06:22;;;;;;;10.15;8.45;;;;;;;-146.58;100.00;69501.63;5032677;28;20046;-61
2024/01/16 08:08:48;;;;;;;13.68;11.38;;;;;;;-146.58;100.00;69501.63;5031114;28;20405;-61
2024/01/16 08:11:14;;;;;;;21.27;11.23;;;;;;;-146.58;100.00;69501.63;5032721;28;20025;-61
2024/01/16 08:13:40;;;;;;;18.23;12.48;;;;;;;-146.58;100.00;69501.63;5031184;28;20033;-61
2024/01/16 08:16:06;;;;;;;14.07;11.45;;;;;;;-146.58;100.00;69501.63;5032253;28;20025;-62
2024/01/16 08:18:31;;;;;;;21.85;11.75;;;;;;;-146.58;100.00;69501.63;5030767;28;20074;-61
2024/01/16 08:20:57;;;;;;;16.65;10.85;;;;;;;-146.58;100.00;69501.63;5031842;28;20025;-61
2024/01/16 08:23:22;;;;;;;25.70;13.38;;;;;;;-146.58;100.00;69501.63;5031648;28;20025;-61
2024/01/16 08:25:48;;;;;;;23.48;10.05;;;;;;;-146.58;100.00;69501.63;5030926;28;20041;-61
2024/01/16 08:28:14;;;;;;;23.10;13.18;;;;;;;-146.58;100.00;69501.63;5032650;28;20033;-61
2024/01/16 08:30:39;;;;;;;17.83;13.40;;;;;;;-146.58;100.00;69501.63;5030329;28;20060;-61
2024/01/16 08:33:04;;;;;;;15.73;12.32;;;;;;;-146.58;100.00;69501.63;5032640;28;20072;-61
2024/01/16 08:35:30;;;;;;;23.70;11.07;;;;;;;-146.58;100.00;69501.63;5030938;28;20426;-61
2024/01/16 08:37:55;;;;;;;12.57;10.00;;;;;;;-146.58;100.00;69501.63;5032122;28;20029;-62
2024/01/16 08:40:21;;;;;;;15.50;12.48;;;;;;;-146.58;100.00;69501.63;5030841;28;20041;-60
2024/01/16 08:42:51;;;;;;;16.02;10.98;;;;;;;-146.58;100.00;69501.63;5031171;28;20040;-60
2024/01/16 08:45:17;;;;;;;19.08;12.40;;;;;;;-146.58;100.00;69501.63;5030237;28;20045;-60
2024/01/16 08:47:42;;;;;;;18.15;9.88;;;;;;;-146.58;100.00;69501.63;5031579;28;20026;-60
2024/01/16 08:50:09;;;;;;;12.07;10.45;;;;;;;-146.58;100.00;69501.63;5030179;28;20037;-60
2024/01/16 08:52:35;;;;;;;20.85;12.40;;;;;;;-146.58;100.00;69501.63;5031244;28;20100;-60
2024/01/16 08:55:00;;;;;;;13.88;10.32;;;;;;;-146.58;100.00;69501.63;5030667;28;20049;-60
2024/01/16 08:57:26;;;;;;;11.82;9.85;;;;;;;-146.58;100.00;69501.63;5032138;28;20021;-60
2024/01/16 08:59:52;;;;;;;19.25;11.38;;;;;;;-146.58;100.00;69501.63;5030084;28;20038;-60
2024/01/16 09:02:18;;;;;;;17.70;10.57;;;;;;;-146.58;100.00;69501.63;5031898;28;20155;-60
2024/01/16 09:04:43;;;;;;;12.73;9.35;;;;;;;-146.58;100.00;69501.63;5029957;28;20045;-60
2024/01/16 09:07:09;;;;;;;15.32;10.05;;;;;;;-146.58;100.00;69501.63;5031345;28;20021;-60
2024/01/16 09:09:34;;;;;;;20.30;10.27;;;;;;;-146.58;100.00;69501.63;5029720;28;20404;-61
2024/01/16 09:11:59;;;;;;;19.35;11.40;;;;;;;-146.58;100.00;69501.63;5031473;28;20026;-60
2024/01/16 09:14:25;;;;;;;21.98;12.55;;;;;;;-146.58;100.00;69501.63;5029482;28;20049;-60
2024/01/16 09:16:50;;;;;;;17.52;10.63;;;;;;;-146.58;100.00;69501.63;5031203;28;20017;-60
2024/01/16 09:19:16;;;;;;;19.50;12.05;;;;;;;-146.58;100.00;69501.63;5030368;28;20030;-60
2024/01/16 09:21:41;;;;;;;17.48;11.77;;;;;;;-146.58;100.00;69501.63;5030864;28;20540;-60
2024/01/16 09:24:07;;;;;;;32.40;14.23;;;;;;;-146.58;100.00;69501.63;5029620;28;20087;-60
2024/01/16 09:26:32;;;;;;;24.25;12.75;;;;;;;-146.58;100.00;69501.63;5031048;28;20033;-60
2024/01/16 09:28:58;;;;;;;23.10;15.52;;;;;;;-146.58;100.00;69501.63;5029197;28;20045;-60
2024/01/16 09:31:23;;;;;;;25.58;11.98;;;;;;;-146.58;100.00;69501.63;5030492;28;20083;-60
2024/01/16 09:33:48;;;;;;;17.80;12.90;;;;;;;-146.58;100.00;69501.63;5029548;28;20493;-60
2024/01/16 09:36:14;;;;;;;20.63;13.23;;;;;;;-146.58;100.00;69501.63;5031083;28;20036;-61
2024/01/16 09:38:39;;;;;;;19.88;13.35;;;;;;;-146.58;100.00;69501.63;5029441;28;20029;-60
2024/01/16 09:41:05;;;;;;;22.10;17.33;;;;;;;-146.58;100.00;69501.63;5031114;28;20033;-61
2024/01/16 09:43:32;;;;;;;18.38;12.38;;;;;;;-146.58;100.00;69501.63;5029444;28;20472;-61
2024/01/16 09:46:01;;;;;;;23.15;14.73;;;;;;;-146.58;100.00;69501.63;5030818;28;20029;-61
2024/01/16 09:48:28;;;;;;;17.83;13.25;;;;;;;-146.58;100.00;69501.63;5029606;28;20026;-60
2024/01/16 09:50:53;;;;;;;16.60;12.82;;;;;;;-146.58;100.00;69501.63;5030428;28;20112;-60
2024/01/16 09:53:19;;;;;;;17.77;14.02;;;;;;;-146.58;100.00;69501.63;5031224;28;20022;-60
2024/01/16 09:55:45;;;;;;;19.67;13.68;;;;;;;-146.58;100.00;69501.63;5029470;28;20526;-60
2024/01/16 09:58:14;;;;;;;24.08;16.02;;;;;;;-146.58;100.00;69501.63;5030332;28;20029;-60
2024/01/16 10:00:42;;;;;;;23.88;14.45;;;;;;;-146.58;100.00;69501.63;5028760;28;20405;-60
2024/01/16 10:03:08;;;;;;;27.75;15.63;;;;;;;-146.58;100.00;69501.63;5031067;28;20025;-60
2024/01/16 10:05:35;;;;;;;22.15;14.63;;;;;;;-146.58;100.00;69501.63;5028917;28;20092;-60
2024/01/16 10:08:00;;;;;;;24.05;14.82;;;;;;;-146.58;100.00;69501.63;5029745;28;20412;-60
2024/01/16 10:10:28;;;;;;;22.33;15.73;;;;;;;-146.58;100.00;69501.63;5029566;28;20034;-60
2024/01/16 10:12:55;;;;;;;24.10;14.85;;;;;;;-146.58;100.00;69501.63;5030454;28;20029;-60
2024/01/16 10:15:21;;;;;;;18.67;13.07;;;;;;;-146.58;100.00;69501.63;5029093;28;20041;-60
2024/01/16 10:17:47;;;;;;;19.00;14.32;;;;;;;-146.58;100.00;69501.63;5030602;28;20056;-60
2024/01/16 10:20:13;;;;;;;24.67;15.88;;;;;;;-146.58;100.00;69501.63;5029128;28;20037;-61
2024/01/16 10:22:51;;;;;;;22.20;14.80;;;;;;;-146.58;100.00;69501.63;5028405;28;20480;-60
2024/01/16 10:25:19;;;;;;;19.33;12.43;;;;;;;-146.58;100.00;69501.63;5029241;28;20041;-60
2024/01/16 10:27:45;;;;;;;19.65;11.68;;;;;;;-146.58;100.00;69501.63;5033695;28;20026;-60
2024/01/16 10:30:10;;;;;;;24.85;12.23;;;;;;;-146.58;100.00;69501.63;5033153;28;20048;-60
2024/01/16 10:32:38;;;;;;;15.98;11.93;;;;;;;-146.58;100.00;69501.63;5034215;28;20388;-60
2024/01/16 10:35:08;;;;;;;20.75;12.70;;;;;;;-146.58;100.00;69501.63;5032842;28;20076;-60
2024/01/16 10:37:53;;;;;;;15.20;13.73;;;;;;;-146.58;100.00;69501.63;5033469;28;20029;-60
2024/01/16 10:40:25;;;;;;;17.08;12.13;;;;;;;-146.58;100.00;69501.63;5033187;28;20045;-60
2024/01/16 10:43:01;;;;;;;18.75;11.30;;;;;;;-146.58;100.00;69501.63;5033656;28;20040;-60
2024/01/16 10:45:26;;;;;;;20.13;11.85;;;;;;;-146.58;100.00;69501.63;5032852;28;20045;-60
2024/01/16 10:48:06;;;;;;;17.95;11.18;;;;;;;-146.58;100.00;69501.63;5034368;28;20036;-60
2024/01/16 10:50:32;;;;;;;15.20;11.65;;;;;;;-146.58;100.00;69501.63;5032360;28;20048;-60